createdAt,value
2019-03-23T00:00:27.906Z,31.45
2019-03-23T00:01:27.802Z,31.17
2019-03-23T00:02:27.697Z,31.17
2019-03-23T00:03:27.594Z,31.45
2019-03-23T00:04:27.489Z,31.64
2019-03-23T00:05:27.385Z,31.64
2019-03-23T00:06:30.934Z,31.74
2019-03-23T00:07:27.175Z,31.36
2019-03-23T00:08:27.070Z,31.26
2019-03-23T00:09:26.967Z,31.55
2019-03-23T00:10:26.870Z,31.55
2019-03-23T00:11:26.765Z,31.84
2019-03-23T00:12:26.659Z,31.74
2019-03-23T00:13:26.551Z,31.93
2019-03-23T00:14:26.519Z,31.74
2019-03-23T00:15:26.343Z,32.40
2019-03-23T00:16:26.239Z,32.40
2019-03-23T00:17:26.133Z,32.50
2019-03-23T00:18:26.033Z,32.59
2019-03-23T00:19:25.925Z,32.59
2019-03-23T00:20:25.819Z,32.78
2019-03-23T00:21:25.716Z,32.88
2019-03-23T00:22:25.611Z,32.88
2019-03-23T00:23:25.508Z,33.07
2019-03-23T00:24:25.404Z,33.17
2019-03-23T00:25:25.299Z,32.97
2019-03-23T00:26:25.194Z,33.07
2019-03-23T00:27:25.091Z,33.17
2019-03-23T00:28:24.986Z,33.26
2019-03-23T00:29:24.882Z,33.36
2019-03-23T00:30:24.780Z,33.36
2019-03-23T00:31:24.672Z,33.26
2019-03-23T00:32:24.568Z,33.15
2019-03-23T00:33:24.518Z,33.15
2019-03-23T00:34:24.418Z,33.24
2019-03-23T00:35:24.253Z,33.53
2019-03-23T00:36:24.149Z,33.62
2019-03-23T00:37:24.049Z,33.81
2019-03-23T00:38:23.942Z,33.62
2019-03-23T00:39:23.838Z,33.34
2019-03-23T00:40:23.733Z,33.24
2019-03-23T00:41:23.630Z,33.24
2019-03-23T00:42:23.528Z,33.24
2019-03-23T00:43:23.421Z,33.53
2019-03-23T00:44:23.363Z,33.34
2019-03-23T00:45:23.210Z,33.26
2019-03-23T00:46:23.108Z,33.34
2019-03-23T00:47:23.002Z,33.34
2019-03-23T00:48:22.898Z,33.81
2019-03-23T00:49:22.794Z,34.02
2019-03-23T00:50:22.692Z,33.81
2019-03-23T00:51:22.592Z,33.72
2019-03-23T00:52:22.484Z,33.44
2019-03-23T00:53:22.407Z,34.00
2019-03-23T00:54:22.275Z,34.00
2019-03-23T00:55:22.169Z,34.00
2019-03-23T00:56:22.066Z,33.91
2019-03-23T00:57:21.959Z,33.91
2019-03-23T00:58:21.857Z,33.91
2019-03-23T00:59:21.750Z,33.91
2019-03-23T01:00:21.647Z,33.62
2019-03-23T01:01:21.542Z,33.91
2019-03-23T01:02:21.437Z,34.29
2019-03-23T01:03:21.333Z,34.19
2019-03-23T01:04:21.230Z,34.29
2019-03-23T01:05:21.124Z,34.29
2019-03-23T01:06:21.019Z,34.09
2019-03-23T01:07:20.918Z,34.38
2019-03-23T01:08:20.810Z,34.38
2019-03-23T01:09:20.706Z,34.48
2019-03-23T01:10:20.604Z,34.38
2019-03-23T01:11:20.496Z,34.48
2019-03-23T01:12:20.446Z,34.57
2019-03-23T01:13:20.295Z,34.76
2019-03-23T01:14:20.185Z,34.76
2019-03-23T01:15:20.079Z,34.76
2019-03-23T01:16:19.974Z,34.67
2019-03-23T01:17:19.871Z,34.76
2019-03-23T01:18:19.765Z,34.95
2019-03-23T01:19:19.662Z,34.76
2019-03-23T01:20:19.556Z,34.95
2019-03-23T01:21:19.451Z,34.76
2019-03-23T01:22:19.349Z,34.95
2019-03-23T01:23:19.241Z,34.95
2019-03-23T01:24:19.138Z,35.14
2019-03-23T01:25:20.848Z,35.24
2019-03-23T01:26:18.932Z,35.14
2019-03-23T01:27:18.824Z,35.24
2019-03-23T01:28:18.720Z,35.42
2019-03-23T01:29:18.615Z,35.52
2019-03-23T01:30:18.509Z,35.81
2019-03-23T01:31:18.424Z,35.42
2019-03-23T01:32:18.370Z,35.61
2019-03-23T01:33:18.197Z,35.81
2019-03-23T01:34:18.094Z,35.81
2019-03-23T01:35:17.989Z,35.90
2019-03-23T01:36:17.883Z,36.00
2019-03-23T01:37:17.780Z,36.19
2019-03-23T01:38:17.675Z,36.00
2019-03-23T01:39:17.567Z,36.28
2019-03-23T01:40:17.467Z,36.38
2019-03-23T01:41:17.362Z,36.57
2019-03-23T01:42:17.259Z,36.47
2019-03-23T01:43:17.155Z,36.57
2019-03-23T01:44:17.046Z,36.47
2019-03-23T01:45:16.943Z,36.85
2019-03-23T01:46:16.838Z,36.76
2019-03-23T01:47:16.735Z,36.66
2019-03-23T01:48:16.629Z,37.04
2019-03-23T01:49:16.527Z,37.04
2019-03-23T01:50:16.423Z,37.04
2019-03-23T01:51:16.360Z,37.04
2019-03-23T01:52:16.211Z,37.23
2019-03-23T01:53:16.108Z,37.13
2019-03-23T01:54:16.004Z,37.23
2019-03-23T01:55:15.900Z,37.42
2019-03-23T01:56:15.794Z,37.13
2019-03-23T01:57:15.689Z,37.71
2019-03-23T01:58:15.589Z,37.52
2019-03-23T01:59:15.482Z,37.80
2019-03-23T02:00:15.378Z,37.99
2019-03-23T02:01:15.272Z,37.80
2019-03-23T02:02:15.169Z,37.90
2019-03-23T02:03:15.064Z,38.09
2019-03-23T02:04:14.960Z,37.99
2019-03-23T02:05:14.855Z,38.09
2019-03-23T02:06:14.751Z,38.09
2019-03-23T02:07:14.646Z,38.18
2019-03-23T02:08:14.546Z,38.09
2019-03-23T02:09:14.438Z,37.90
2019-03-23T02:10:14.372Z,38.37
2019-03-23T02:11:14.265Z,38.28
2019-03-23T02:12:14.125Z,38.37
2019-03-23T02:13:14.023Z,38.18
2019-03-23T02:14:13.917Z,38.37
2019-03-23T02:15:13.813Z,38.09
2019-03-23T02:16:13.709Z,38.18
2019-03-23T02:17:13.604Z,38.09
2019-03-23T02:18:13.500Z,38.09
2019-03-23T02:19:13.396Z,38.09
2019-03-23T02:20:13.292Z,38.56
2019-03-23T02:21:13.188Z,38.28
2019-03-23T02:22:13.082Z,38.28
2019-03-23T02:23:12.977Z,38.28
2019-03-23T02:24:12.878Z,38.37
2019-03-23T02:25:12.770Z,38.28
2019-03-23T02:26:12.666Z,38.28
2019-03-23T02:27:12.562Z,38.46
2019-03-23T02:28:12.458Z,38.37
2019-03-23T02:29:12.366Z,38.56
2019-03-23T02:30:12.290Z,38.37
2019-03-23T02:31:12.147Z,38.28
2019-03-23T02:32:12.049Z,38.46
2019-03-23T02:33:11.939Z,38.75
2019-03-23T02:34:11.836Z,38.65
2019-03-23T02:35:11.741Z,38.85
2019-03-23T02:36:11.630Z,38.85
2019-03-23T02:37:11.526Z,38.75
2019-03-23T02:38:11.415Z,39.32
2019-03-23T02:39:11.312Z,39.04
2019-03-23T02:40:11.208Z,39.04
2019-03-23T02:41:11.105Z,39.04
2019-03-23T02:42:11.001Z,39.13
2019-03-23T02:43:10.897Z,39.32
2019-03-23T02:44:10.792Z,39.04
2019-03-23T02:45:10.692Z,39.51
2019-03-23T02:46:10.582Z,39.61
2019-03-23T02:47:10.479Z,39.70
2019-03-23T02:48:10.375Z,39.79
2019-03-23T02:49:10.343Z,39.79
2019-03-23T02:50:10.171Z,39.70
2019-03-23T02:51:10.066Z,39.79
2019-03-23T02:52:09.967Z,39.51
2019-03-23T02:53:09.853Z,39.98
2019-03-23T02:54:09.751Z,40.17
2019-03-23T02:55:09.646Z,40.08
2019-03-23T02:56:09.538Z,40.08
2019-03-23T02:57:09.438Z,40.17
2019-03-23T02:58:09.335Z,40.08
2019-03-23T02:59:09.229Z,40.17
2019-03-23T03:00:09.121Z,40.17
2019-03-23T03:01:09.031Z,40.17
2019-03-23T03:02:08.915Z,39.89
2019-03-23T03:03:08.810Z,39.89
2019-03-23T03:04:08.707Z,39.79
2019-03-23T03:05:08.603Z,39.98
2019-03-23T03:06:08.498Z,40.46
2019-03-23T03:07:08.397Z,40.65
2019-03-23T03:08:08.315Z,40.65
2019-03-23T03:09:08.238Z,40.84
2019-03-23T03:10:08.086Z,41.03
2019-03-23T03:11:07.988Z,41.03
2019-03-23T03:12:07.879Z,41.03
2019-03-23T03:13:07.769Z,40.56
2019-03-23T03:14:07.667Z,40.65
2019-03-23T03:15:07.560Z,40.65
2019-03-23T03:16:07.453Z,40.84
2019-03-23T03:17:07.350Z,40.75
2019-03-23T03:18:07.257Z,41.03
2019-03-23T03:19:07.145Z,40.94
2019-03-23T03:20:07.039Z,40.94
2019-03-23T03:21:06.942Z,40.84
2019-03-23T03:22:06.830Z,41.22
2019-03-23T03:23:06.726Z,41.13
2019-03-23T03:24:06.622Z,41.03
2019-03-23T03:25:06.522Z,41.22
2019-03-23T03:26:06.418Z,41.31
2019-03-23T03:27:06.315Z,41.13
2019-03-23T03:28:06.251Z,41.13
2019-03-23T03:29:06.100Z,41.31
2019-03-23T03:30:05.998Z,41.41
2019-03-23T03:31:06.224Z,41.31
2019-03-23T03:32:05.790Z,41.50
2019-03-23T03:33:05.687Z,41.69
2019-03-23T03:34:05.582Z,41.60
2019-03-23T03:35:05.485Z,41.60
2019-03-23T03:36:05.375Z,41.60
2019-03-23T03:37:05.268Z,41.60
2019-03-23T03:38:05.165Z,41.79
2019-03-23T03:39:05.060Z,41.89
2019-03-23T03:40:04.957Z,41.60
2019-03-23T03:41:05.150Z,41.69
2019-03-23T03:42:04.748Z,41.96
2019-03-23T03:43:04.642Z,42.17
2019-03-23T03:44:04.541Z,41.96
2019-03-23T03:45:04.436Z,42.15
2019-03-23T03:46:04.331Z,42.05
2019-03-23T03:47:04.274Z,42.24
2019-03-23T03:48:04.197Z,42.24
2019-03-23T03:49:12.141Z,42.34
2019-03-23T03:50:03.914Z,42.43
2019-03-23T03:51:03.807Z,42.43
2019-03-23T03:52:03.702Z,42.63
2019-03-23T03:53:03.603Z,42.53
2019-03-23T03:54:03.497Z,42.82
2019-03-23T03:55:03.392Z,42.72
2019-03-23T03:56:03.286Z,42.53
2019-03-23T03:57:03.199Z,42.91
2019-03-23T03:58:03.080Z,43.01
2019-03-23T03:59:02.977Z,42.91
2019-03-23T04:00:02.872Z,42.72
2019-03-23T04:01:03.077Z,42.82
2019-03-23T04:02:02.662Z,43.01
2019-03-23T04:03:02.561Z,43.19
2019-03-23T04:04:02.506Z,43.01
2019-03-23T04:05:02.346Z,43.01
2019-03-23T04:06:02.250Z,43.29
2019-03-23T04:07:02.186Z,43.10
2019-03-23T04:08:11.014Z,43.10
2019-03-23T04:09:01.937Z,43.29
2019-03-23T04:10:01.829Z,43.19
2019-03-23T04:11:01.724Z,43.19
2019-03-23T04:12:01.620Z,43.57
2019-03-23T04:13:01.513Z,43.29
2019-03-23T04:14:01.414Z,43.29
2019-03-23T04:15:01.306Z,43.38
2019-03-23T04:16:01.209Z,43.48
2019-03-23T04:17:01.097Z,43.86
2019-03-23T04:18:00.993Z,43.67
2019-03-23T04:19:00.887Z,43.86
2019-03-23T04:20:00.779Z,43.67
2019-03-23T04:21:00.977Z,43.86
2019-03-23T04:22:00.574Z,43.67
2019-03-23T04:23:00.475Z,44.24
2019-03-23T04:24:00.365Z,44.14
2019-03-23T04:25:00.573Z,44.34
2019-03-23T04:26:00.224Z,44.05
2019-03-23T04:27:00.071Z,44.24
2019-03-23T04:27:59.949Z,43.86
2019-03-23T04:28:59.856Z,43.95
2019-03-23T04:29:59.738Z,44.14
2019-03-23T04:30:59.634Z,44.14
2019-03-23T04:31:59.535Z,44.24
2019-03-23T04:32:59.427Z,44.14
2019-03-23T04:33:59.322Z,44.53
2019-03-23T04:34:59.217Z,44.81
2019-03-23T04:35:59.112Z,44.34
2019-03-23T04:36:59.008Z,44.62
2019-03-23T04:37:58.904Z,44.71
2019-03-23T04:38:58.802Z,44.62
2019-03-23T04:39:58.695Z,44.62
2019-03-23T04:40:58.590Z,44.62
2019-03-23T04:41:58.484Z,44.90
2019-03-23T04:42:58.381Z,44.71
2019-03-23T04:43:58.275Z,44.71
2019-03-23T04:44:58.181Z,44.90
2019-03-23T04:45:58.117Z,44.43
2019-03-23T04:46:57.967Z,45.00
2019-03-23T04:47:57.859Z,44.81
2019-03-23T04:48:57.755Z,44.81
2019-03-23T04:49:57.648Z,45.00
2019-03-23T04:50:57.847Z,44.71
2019-03-23T04:51:57.442Z,44.62
2019-03-23T04:52:57.336Z,45.19
2019-03-23T04:53:57.235Z,45.09
2019-03-23T04:54:57.129Z,45.00
2019-03-23T04:55:57.029Z,45.47
2019-03-23T04:56:56.920Z,45.38
2019-03-23T04:57:56.816Z,45.28
2019-03-23T04:58:56.712Z,45.38
2019-03-23T04:59:56.608Z,45.28
2019-03-23T05:00:56.504Z,45.38
2019-03-23T05:01:56.400Z,45.85
2019-03-23T05:02:56.295Z,45.19
2019-03-23T05:03:56.189Z,45.38
2019-03-23T05:04:56.162Z,45.76
2019-03-23T05:05:55.980Z,45.19
2019-03-23T05:06:55.878Z,45.28
2019-03-23T05:07:55.774Z,45.38
2019-03-23T05:08:55.667Z,45.00
2019-03-23T05:09:55.563Z,45.09
2019-03-23T05:10:55.459Z,45.00
2019-03-23T05:11:55.353Z,44.81
2019-03-23T05:12:55.250Z,44.71
2019-03-23T05:13:55.148Z,44.71
2019-03-23T05:14:55.046Z,44.53
2019-03-23T05:15:54.935Z,44.53
2019-03-23T05:16:54.832Z,44.14
2019-03-23T05:17:54.730Z,44.43
2019-03-23T05:18:54.623Z,44.14
2019-03-23T05:19:54.520Z,43.86
2019-03-23T05:20:54.413Z,43.86
2019-03-23T05:21:54.309Z,44.53
2019-03-23T05:22:54.206Z,44.62
2019-03-23T05:23:54.139Z,43.86
2019-03-23T05:24:54.073Z,43.76
2019-03-23T05:25:53.895Z,43.57
2019-03-23T05:26:53.787Z,43.38
2019-03-23T05:27:53.681Z,43.38
2019-03-23T05:28:53.577Z,43.10
2019-03-23T05:29:53.476Z,43.29
2019-03-23T05:30:53.369Z,43.01
2019-03-23T05:31:53.263Z,42.82
2019-03-23T05:32:53.160Z,42.72
2019-03-23T05:33:53.055Z,42.91
2019-03-23T05:34:52.950Z,42.72
2019-03-23T05:35:52.846Z,42.53
2019-03-23T05:36:52.740Z,42.43
2019-03-23T05:37:52.638Z,42.24
2019-03-23T05:38:52.540Z,42.17
2019-03-23T05:39:52.428Z,42.17
2019-03-23T05:40:52.324Z,42.27
2019-03-23T05:41:52.222Z,42.46
2019-03-23T05:42:52.116Z,42.83
2019-03-23T05:43:52.048Z,42.55
2019-03-23T05:44:51.910Z,42.65
2019-03-23T05:45:51.810Z,42.74
2019-03-23T05:46:54.135Z,43.50
2019-03-23T05:47:51.598Z,44.00
2019-03-23T05:48:51.492Z,44.38
2019-03-23T05:49:51.386Z,43.80
2019-03-23T05:50:51.283Z,45.80
2019-03-23T05:51:51.183Z,46.66
2019-03-23T05:52:51.076Z,48.18
2019-03-23T05:53:50.975Z,48.68
2019-03-23T05:54:50.873Z,49.06
2019-03-23T05:55:50.765Z,51.72
2019-03-23T05:56:50.709Z,52.29
2019-03-23T05:57:50.559Z,52.29
2019-03-23T05:58:50.457Z,54.77
2019-03-23T05:59:50.350Z,57.36
2019-03-23T06:00:50.252Z,57.74
2019-03-23T06:01:50.146Z,59.55
2019-03-23T06:02:50.087Z,60.24
2019-03-23T06:03:49.958Z,61.29
2019-03-23T06:04:49.837Z,63.01
2019-03-23T06:05:49.735Z,65.10
2019-03-23T06:06:49.637Z,65.00
2019-03-23T06:07:49.537Z,67.99
2019-03-23T06:08:54.940Z,68.46
2019-03-23T06:09:49.322Z,69.23
2019-03-23T06:10:49.219Z,69.89
2019-03-23T06:11:49.115Z,71.70
2019-03-23T06:12:49.015Z,70.78
2019-03-23T06:13:48.921Z,71.93
2019-03-23T06:14:48.809Z,74.88
2019-03-23T06:15:48.710Z,73.55
2019-03-23T06:16:48.604Z,74.88
2019-03-23T06:17:48.505Z,77.07
2019-03-23T06:18:48.401Z,76.31
2019-03-23T06:19:48.297Z,76.50
2019-03-23T06:20:48.199Z,76.82
2019-03-23T06:21:48.096Z,76.64
2019-03-23T06:22:48.067Z,78.06
2019-03-23T06:23:47.892Z,79.49
2019-03-23T06:24:47.792Z,79.40
2019-03-23T06:25:47.689Z,80.07
2019-03-23T06:26:47.587Z,80.73
2019-03-23T06:27:47.529Z,81.54
2019-03-23T06:28:47.386Z,82.30
2019-03-23T06:29:47.288Z,82.11
2019-03-23T06:30:47.184Z,82.30
2019-03-23T06:31:47.079Z,84.53
2019-03-23T06:32:46.983Z,84.92
2019-03-23T06:33:46.879Z,85.01
2019-03-23T06:34:46.780Z,86.16
2019-03-23T06:35:46.679Z,87.49
2019-03-23T06:36:46.578Z,86.10
2019-03-23T06:37:46.479Z,87.82
2019-03-23T06:38:46.374Z,88.26
2019-03-23T06:39:46.276Z,87.02
2019-03-23T06:40:46.175Z,85.87
2019-03-23T06:41:46.079Z,86.92
2019-03-23T06:42:46.036Z,86.87
2019-03-23T06:43:45.879Z,87.59
2019-03-23T06:44:45.773Z,87.40
2019-03-23T06:45:45.673Z,85.25
2019-03-23T06:46:45.575Z,83.54
2019-03-23T06:47:45.473Z,83.21
2019-03-23T06:48:45.374Z,80.83
2019-03-23T06:49:45.271Z,80.35
2019-03-23T06:50:45.173Z,80.54
2019-03-23T06:51:45.074Z,81.68
2019-03-23T06:52:44.972Z,82.97
2019-03-23T06:53:44.872Z,84.49
2019-03-23T06:54:44.773Z,86.06
2019-03-23T06:55:44.668Z,86.63
2019-03-23T06:56:44.569Z,87.25
2019-03-23T06:57:44.470Z,88.68
2019-03-23T06:58:44.370Z,89.68
2019-03-23T06:59:44.269Z,89.30
2019-03-23T07:00:44.168Z,89.49
2019-03-23T07:01:44.069Z,90.25
2019-03-23T07:02:44.025Z,89.87
2019-03-23T07:03:43.948Z,90.83
2019-03-23T07:04:43.768Z,91.78
2019-03-23T07:05:43.672Z,90.73
2019-03-23T07:06:43.570Z,92.40
2019-03-23T07:07:43.467Z,90.88
2019-03-23T07:08:43.368Z,90.45
2019-03-23T07:09:43.269Z,90.25
2019-03-23T07:10:43.223Z,89.45
2019-03-23T07:11:43.067Z,88.01
2019-03-23T07:12:42.966Z,85.87
2019-03-23T07:13:42.872Z,84.92
2019-03-23T07:14:42.770Z,83.73
2019-03-23T07:15:42.669Z,82.97
2019-03-23T07:16:42.568Z,82.01
2019-03-23T07:17:42.469Z,80.20
2019-03-23T07:18:42.371Z,79.59
2019-03-23T07:19:42.282Z,78.92
2019-03-23T07:20:42.170Z,78.64
2019-03-23T07:21:42.067Z,77.97
2019-03-23T07:22:41.993Z,77.30
2019-03-23T07:23:41.917Z,78.25
2019-03-23T07:24:41.765Z,78.64
2019-03-23T07:25:41.669Z,77.69
2019-03-23T07:26:41.567Z,77.97
2019-03-23T07:27:41.467Z,76.16
2019-03-23T07:28:41.366Z,77.01
2019-03-23T07:29:41.268Z,75.87
2019-03-23T07:30:41.164Z,75.78
2019-03-23T07:31:41.064Z,75.49
2019-03-23T07:32:40.963Z,74.06
2019-03-23T07:33:40.867Z,74.35
2019-03-23T07:34:40.763Z,73.30
2019-03-23T07:35:40.664Z,73.21
2019-03-23T07:36:40.591Z,74.82
2019-03-23T07:37:40.462Z,75.01
2019-03-23T07:38:40.359Z,75.11
2019-03-23T07:39:40.259Z,75.01
2019-03-23T07:40:40.154Z,74.73
2019-03-23T07:41:40.056Z,73.58
2019-03-23T07:42:39.973Z,75.11
2019-03-23T07:43:39.899Z,75.05
2019-03-23T07:44:39.753Z,75.15
2019-03-23T07:45:39.652Z,74.77
2019-03-23T07:46:39.552Z,76.10
2019-03-23T07:47:39.449Z,73.05
2019-03-23T07:48:39.351Z,74.10
2019-03-23T07:49:39.249Z,75.15
2019-03-23T07:50:39.150Z,77.06
2019-03-23T07:51:39.049Z,76.57
2019-03-23T07:52:38.946Z,76.67
2019-03-23T07:53:38.843Z,76.67
2019-03-23T07:54:38.746Z,76.77
2019-03-23T07:55:38.643Z,76.77
2019-03-23T07:56:38.545Z,77.00
2019-03-23T07:57:38.451Z,76.77
2019-03-23T07:58:38.340Z,74.29
2019-03-23T07:59:38.240Z,73.72
2019-03-23T08:00:38.139Z,74.57
2019-03-23T08:01:38.038Z,74.23
2019-03-23T08:02:37.948Z,73.66
2019-03-23T08:03:37.882Z,75.18
2019-03-23T08:04:37.738Z,75.28
2019-03-23T08:05:37.638Z,75.47
2019-03-23T08:06:37.534Z,75.05
2019-03-23T08:07:37.438Z,73.94
2019-03-23T08:08:37.334Z,75.28
2019-03-23T08:09:37.914Z,74.80
2019-03-23T08:10:37.133Z,72.71
2019-03-23T08:11:37.032Z,74.04
2019-03-23T08:12:36.932Z,75.18
2019-03-23T08:13:36.836Z,73.94
2019-03-23T08:14:36.731Z,76.33
2019-03-23T08:15:36.632Z,76.04
2019-03-23T08:16:36.530Z,76.33
2019-03-23T08:17:36.432Z,76.08
2019-03-23T08:18:36.330Z,77.99
2019-03-23T08:19:36.230Z,76.37
2019-03-23T08:20:36.128Z,77.51
2019-03-23T08:21:36.029Z,78.09
2019-03-23T08:22:35.933Z,78.66
2019-03-23T08:23:35.912Z,77.99
2019-03-23T08:24:35.730Z,76.56
2019-03-23T08:25:35.629Z,81.18
2019-03-23T08:26:35.528Z,81.66
2019-03-23T08:27:35.429Z,80.51
2019-03-23T08:28:35.326Z,82.04
2019-03-23T08:29:35.229Z,83.00
2019-03-23T08:30:35.127Z,81.95
2019-03-23T08:31:35.024Z,83.09
2019-03-23T08:32:34.934Z,83.28
2019-03-23T08:33:34.857Z,81.99
2019-03-23T08:34:34.725Z,85.77
2019-03-23T08:35:34.627Z,83.90
2019-03-23T08:36:34.526Z,85.05
2019-03-23T08:37:34.429Z,87.24
2019-03-23T08:38:34.326Z,86.38
2019-03-23T08:39:34.226Z,85.71
2019-03-23T08:40:35.715Z,87.34
2019-03-23T08:41:34.028Z,88.29
2019-03-23T08:42:35.014Z,87.62
2019-03-23T08:43:33.906Z,88.20
2019-03-23T08:44:33.726Z,87.72
2019-03-23T08:45:33.633Z,87.53
2019-03-23T08:46:33.529Z,88.01
2019-03-23T08:47:33.432Z,87.43
2019-03-23T08:48:33.330Z,87.05
2019-03-23T08:49:33.226Z,87.82
2019-03-23T08:50:33.131Z,85.81
2019-03-23T08:51:33.027Z,86.57
2019-03-23T08:52:32.931Z,87.15
2019-03-23T08:53:32.829Z,88.10
2019-03-23T08:54:32.731Z,88.91
2019-03-23T08:55:32.630Z,87.38
2019-03-23T08:56:32.536Z,89.67
2019-03-23T08:57:32.438Z,88.15
2019-03-23T08:58:32.334Z,87.86
2019-03-23T08:59:32.233Z,88.72
2019-03-23T09:00:32.134Z,89.77
2019-03-23T09:01:32.034Z,89.48
2019-03-23T09:02:31.934Z,89.77
2019-03-23T09:03:31.910Z,87.66
2019-03-23T09:04:31.804Z,90.53
2019-03-23T09:05:31.636Z,90.34
2019-03-23T09:06:31.536Z,90.73
2019-03-23T09:07:31.444Z,89.29
2019-03-23T09:08:31.337Z,90.73
2019-03-23T09:09:31.240Z,90.06
2019-03-23T09:10:31.140Z,90.34
2019-03-23T09:11:31.041Z,90.92
2019-03-23T09:12:30.941Z,91.11
2019-03-23T09:13:40.187Z,90.82
2019-03-23T09:14:30.744Z,92.45
2019-03-23T09:15:30.944Z,93.02
2019-03-23T09:16:30.544Z,91.78
2019-03-23T09:17:30.445Z,91.02
2019-03-23T09:18:30.347Z,90.82
2019-03-23T09:19:30.253Z,90.48
2019-03-23T09:20:30.148Z,91.35
2019-03-23T09:21:30.051Z,91.53
2019-03-23T09:22:29.947Z,91.44
2019-03-23T09:23:29.848Z,92.49
2019-03-23T09:24:29.795Z,91.92
2019-03-23T09:25:29.650Z,92.02
2019-03-23T09:26:29.559Z,90.58
2019-03-23T09:27:29.453Z,93.07
2019-03-23T09:28:29.353Z,93.64
2019-03-23T09:29:29.256Z,92.11
2019-03-23T09:30:29.156Z,91.06
2019-03-23T09:31:29.056Z,92.49
2019-03-23T09:32:28.955Z,92.92
2019-03-23T09:33:28.859Z,93.40
2019-03-23T09:34:28.763Z,92.73
2019-03-23T09:35:28.660Z,93.50
2019-03-23T09:36:28.559Z,93.12
2019-03-23T09:37:28.459Z,93.02
2019-03-23T09:38:28.361Z,94.36
2019-03-23T09:39:28.262Z,93.69
2019-03-23T09:40:28.165Z,94.84
2019-03-23T09:41:28.067Z,94.50
2019-03-23T09:42:27.967Z,93.45
2019-03-23T09:43:27.866Z,93.83
2019-03-23T09:44:27.827Z,94.40
2019-03-23T09:45:27.696Z,95.07
2019-03-23T09:46:27.571Z,95.27
2019-03-23T09:47:27.471Z,94.40
2019-03-23T09:48:27.371Z,93.83
2019-03-23T09:49:27.275Z,92.97
2019-03-23T09:50:27.173Z,94.50
2019-03-23T09:51:29.228Z,94.40
2019-03-23T09:52:26.977Z,94.31
2019-03-23T09:53:26.876Z,94.31
2019-03-23T09:54:26.779Z,93.35
2019-03-23T09:55:28.589Z,93.74
2019-03-23T09:56:26.586Z,95.27
2019-03-23T09:57:26.484Z,94.84
2019-03-23T09:58:26.384Z,94.55
2019-03-23T09:59:26.287Z,94.07
2019-03-23T10:00:26.186Z,93.78
2019-03-23T10:01:26.092Z,96.27
2019-03-23T10:02:25.989Z,94.26
2019-03-23T10:03:25.891Z,95.03
2019-03-23T10:04:25.799Z,95.31
2019-03-23T10:05:25.729Z,95.70
2019-03-23T10:06:25.596Z,94.55
2019-03-23T10:07:25.498Z,94.84
2019-03-23T10:08:25.397Z,95.12
2019-03-23T10:09:25.303Z,95.60
2019-03-23T10:10:25.207Z,94.84
2019-03-23T10:11:25.104Z,95.89
2019-03-23T10:12:25.008Z,96.08
2019-03-23T10:13:24.907Z,95.41
2019-03-23T10:14:24.811Z,95.03
2019-03-23T10:15:24.709Z,94.93
2019-03-23T10:16:24.612Z,95.60
2019-03-23T10:17:24.517Z,94.74
2019-03-23T10:18:24.415Z,95.03
2019-03-23T10:19:24.314Z,95.79
2019-03-23T10:20:24.218Z,95.98
2019-03-23T10:21:24.123Z,97.23
2019-03-23T10:22:24.020Z,95.41
2019-03-23T10:23:23.922Z,95.22
2019-03-23T10:24:23.831Z,95.51
2019-03-23T10:25:23.770Z,95.60
2019-03-23T10:26:23.700Z,95.41
2019-03-23T10:27:23.530Z,94.93
2019-03-23T10:28:23.428Z,95.89
2019-03-23T10:29:23.334Z,95.89
2019-03-23T10:30:24.593Z,95.46
2019-03-23T10:31:23.135Z,94.98
2019-03-23T10:32:23.041Z,94.93
2019-03-23T10:33:22.941Z,95.65
2019-03-23T10:34:22.839Z,95.65
2019-03-23T10:35:22.739Z,95.26
2019-03-23T10:36:22.647Z,96.13
2019-03-23T10:37:22.548Z,95.60
2019-03-23T10:38:22.449Z,94.50
2019-03-23T10:39:22.356Z,94.84
2019-03-23T10:40:31.998Z,95.65
2019-03-23T10:41:22.155Z,94.69
2019-03-23T10:42:22.056Z,95.65
2019-03-23T10:43:21.962Z,95.26
2019-03-23T10:44:21.858Z,95.56
2019-03-23T10:45:21.761Z,94.02
2019-03-23T10:46:21.705Z,96.32
2019-03-23T10:47:21.624Z,94.98
2019-03-23T10:48:21.467Z,95.56
2019-03-23T10:49:21.368Z,95.65
2019-03-23T10:50:21.269Z,94.98
2019-03-23T10:51:21.171Z,95.46
2019-03-23T10:52:21.074Z,95.56
2019-03-23T10:53:23.203Z,95.07
2019-03-23T10:54:20.883Z,95.07
2019-03-23T10:55:20.780Z,95.17
2019-03-23T10:56:20.682Z,95.07
2019-03-23T10:57:20.584Z,95.46
2019-03-23T10:58:20.487Z,95.65
2019-03-23T10:59:20.388Z,95.07
2019-03-23T11:00:20.290Z,94.79
2019-03-23T11:01:20.191Z,95.75
2019-03-23T11:02:20.095Z,95.56
2019-03-23T11:03:19.996Z,94.69
2019-03-23T11:04:19.898Z,95.51
2019-03-23T11:05:19.799Z,95.51
2019-03-23T11:06:19.712Z,95.65
2019-03-23T11:07:19.663Z,94.02
2019-03-23T11:08:19.507Z,95.75
2019-03-23T11:09:19.410Z,94.98
2019-03-23T11:10:19.311Z,94.59
2019-03-23T11:11:19.215Z,96.13
2019-03-23T11:12:19.115Z,95.65
2019-03-23T11:13:19.024Z,94.98
2019-03-23T11:14:18.922Z,95.46
2019-03-23T11:15:18.822Z,95.56
2019-03-23T11:16:18.725Z,95.17
2019-03-23T11:17:18.628Z,95.46
2019-03-23T11:18:18.531Z,95.56
2019-03-23T11:19:18.431Z,95.65
2019-03-23T11:20:18.334Z,95.36
2019-03-23T11:21:18.236Z,94.79
2019-03-23T11:22:18.139Z,96.18
2019-03-23T11:23:18.041Z,95.84
2019-03-23T11:24:17.944Z,94.69
2019-03-23T11:25:17.854Z,94.59
2019-03-23T11:26:17.749Z,95.56
2019-03-23T11:27:17.706Z,95.26
2019-03-23T11:28:17.584Z,95.17
2019-03-23T11:29:17.459Z,96.13
2019-03-23T11:30:17.362Z,95.41
2019-03-23T11:31:17.266Z,96.51
2019-03-23T11:32:17.166Z,96.08
2019-03-23T11:33:17.066Z,95.60
2019-03-23T11:34:18.043Z,96.08
2019-03-23T11:35:16.925Z,96.22
2019-03-23T11:36:16.777Z,95.36
2019-03-23T11:37:16.715Z,96.61
2019-03-23T11:38:16.578Z,95.84
2019-03-23T11:39:16.479Z,95.46
2019-03-23T11:40:16.389Z,96.61
2019-03-23T11:41:16.285Z,95.56
2019-03-23T11:42:16.186Z,95.65
2019-03-23T11:43:16.089Z,95.94
2019-03-23T11:44:15.992Z,96.18
2019-03-23T11:45:15.896Z,95.51
2019-03-23T11:46:17.023Z,96.03
2019-03-23T11:47:15.700Z,95.65
2019-03-23T11:48:15.676Z,99.10
2019-03-23T11:49:15.512Z,96.99
2019-03-23T11:50:15.411Z,96.61
2019-03-23T11:51:15.312Z,95.84
2019-03-23T11:52:15.213Z,94.89
2019-03-23T11:53:15.118Z,96.13
2019-03-23T11:54:15.018Z,95.65
2019-03-23T11:55:14.921Z,95.65
2019-03-23T11:56:14.824Z,95.60
2019-03-23T11:57:14.728Z,96.08
2019-03-23T11:58:14.629Z,95.31
2019-03-23T11:59:14.531Z,95.60
2019-03-23T12:00:14.435Z,95.17
2019-03-23T12:01:14.336Z,94.98
2019-03-23T12:02:14.240Z,95.17
2019-03-23T12:03:14.143Z,94.69
2019-03-23T12:04:14.043Z,94.98
2019-03-23T12:05:13.960Z,95.03
2019-03-23T12:06:13.846Z,95.31
2019-03-23T12:07:13.750Z,94.26
2019-03-23T12:08:13.650Z,93.93
2019-03-23T12:09:13.639Z,94.98
2019-03-23T12:10:13.457Z,94.89
2019-03-23T12:11:13.358Z,93.84
2019-03-23T12:12:13.261Z,94.60
2019-03-23T12:13:13.162Z,93.16
2019-03-23T12:14:13.064Z,93.64
2019-03-23T12:15:12.965Z,93.64
2019-03-23T12:16:12.869Z,91.97
2019-03-23T12:17:12.769Z,91.68
2019-03-23T12:18:12.673Z,91.97
2019-03-23T12:19:12.574Z,92.25
2019-03-23T12:20:12.491Z,92.21
2019-03-23T12:21:12.376Z,91.93
2019-03-23T12:22:12.279Z,92.11
2019-03-23T12:23:12.178Z,92.21
2019-03-23T12:24:12.080Z,92.40
2019-03-23T12:25:11.982Z,91.50
2019-03-23T12:26:11.886Z,90.83
2019-03-23T12:27:11.787Z,88.30
2019-03-23T12:28:11.686Z,86.77
2019-03-23T12:29:11.615Z,88.11
2019-03-23T12:30:11.548Z,89.35
2019-03-23T12:31:11.391Z,89.06
2019-03-23T12:32:11.291Z,90.69
2019-03-23T12:33:11.193Z,90.97
2019-03-23T12:34:11.091Z,91.07
2019-03-23T12:35:10.993Z,90.02
2019-03-23T12:36:10.901Z,91.93
2019-03-23T12:37:10.797Z,90.17
2019-03-23T12:38:10.698Z,90.17
2019-03-23T12:39:10.597Z,90.73
2019-03-23T12:40:10.499Z,90.36
2019-03-23T12:41:22.529Z,89.59
2019-03-23T12:42:10.302Z,90.93
2019-03-23T12:43:10.200Z,90.69
2019-03-23T12:44:10.100Z,91.36
2019-03-23T12:45:10.001Z,89.83
2019-03-23T12:46:09.904Z,90.21
2019-03-23T12:47:09.800Z,91.16
2019-03-23T12:48:09.705Z,92.31
2019-03-23T12:49:09.605Z,94.07
2019-03-23T12:50:09.529Z,92.93
2019-03-23T12:51:09.402Z,92.93